الصفحة الرئيسية
METAR-TAF:

METAR-TAF

مطار :

مطار تونس قرطاج الدولي

تونس, تونس

دائرة عرض: 36-50N, خط طول: 010-14E, ارتفاع: 3 متر

مراقبة الطقس الحالي

تاريخ ووقت الإصدار 37 دقيقة قبل الساعة 09:00UTC
ريح 5 عقدة من الشرق/الجنوب الشرقي, الاتجاه يتراوح بين الشمال/الشمال الشرقي و الجنوب/الجنوب الشرقي
درجة الحرارة 24°درجة مئوية
الرطوبة 78%
ضغط 1012 hPa
الرؤية 10 كم أو أكثر
غيوم قليلة على ارتفاع 2000 قدم
غيوم متفرقة على ارتفاع 4000 قدم

METAR: DTTA 170900Z 11005KT 020V160 9999 FEW020 SCT040 24/20 Q1012 NOSIG

زمن: 10:37 (09:37 UTC)

توقعات

تاريخ ووقت الإصدار 4ساعات و 7 دقيقة قبل الساعة 05:30UTC
التوقعات صالحة من17 الساعة 06 UTC إلى 18 الساعة 06 UTC
ريح 3 عقدةمن اتجاهات متغيرة
الرؤية 10 كم أو أكثر
غيوم متفرقة على ارتفاع 2300 قدم
مؤقت
من 17 الساعة 09 UTC إلى 18 الساعة 06 UTC
ريح 20 عقدة من الشرق تتزايد حتى 30 عقدة
الرؤية: 4000 متر
غيوم متفرقة على ارتفاع 2300 قدم, مزنة ركامية.
عاصفة رعدية, (خفيف) زخات من المطر

TAF: DTTA 170530Z 1706/1806 VRB03KT 9999 SCT023 TEMPO 1709/1806 10020G30KT 4000 -TS SHRA SCT023CB

أرصاد الطقس والتوقعات من أكثر من 4000 مطار (تقارير الطقس للمطار METAR والتنبؤ بالطقس بالمطارTAF).

المحطات المتاحة هي النقط الصفراء والحمراء على الخريطة.

حرك المؤشر فوق النقطة لمعرفة اسم المحطة.

ثم انقر لمعرفة أرصاد وتوقعات الطقس.

لتغيير الخارطة: اضغط على الأزرار الخضراء مع رمز الصليب الأسود للتكبير. على الزر الأخضر مع شرطة للتصغير، أو على الأسهم الخضراء للخرائط المجاورة.


METAR-TAF: